Cates, Indiana
Current Conditions -  °F | °C
As of 9:35 PM on Thursday 20 Nov 2014 (Local Time) from KDNV Reporting Station
Clear Clear  
Wind Chill: 11°   Ceiling: Unl
Heat Index: 20°   Visibility: 10mi
Dew Point: 10°   Wind: 7mph
Humidity: 66%   Direction: 300°WNW
Pressure: 30.23"   Gusts: NA
Location:  39.9707°N, 87.3162°W
Report Text: KDNV 210235Z AUTO 30006KT 10SM CLR M06/M12 A3023 RMK AO2 T10651120
Loading
Personal Weather Stations






























Interactive Weather Map New forecast layout! Learn more

10-Day Weather Forecast

Advertisements
Track Severe Weather on mobile